Impacts METAR Board
IDs:

KLGA - New York/La Guardia, NY, US

Updated at: 2100 UTC 01 Feb 2023
Potential Impact None Slight Moderate High
Time 01/09Z 01/10Z 01/11Z 01/12Z 01/13Z 01/14Z 01/15Z 01/16Z 01/17Z 01/18Z 01/19Z 01/20Z 01/21Z
Temp29 26 26 27 28 28 30 33 33 35 37 38 38
Dewpt16 18 20 21 19 18 18 19 17 15 12 10 8
Altim30.22 30.23 30.23 30.26 30.27 30.27 30.29 30.28 30.27 30.24 30.22 30.21 30.21
VIS7 2.5 7 10 10 10 10 10 10 10 10 10 10
CIG32 36 28 15 50 50 50 49 -- -- -- -- --
CoverOVCOVCOVCOVCOVCOVCBKNBKNSCTSCTSCTFEWFEW
FltCatVFRIFRMVFRMVFRVFRVFRVFRVFRVFRVFRVFRVFRVFR
WX-SN-SN-SN--------------------
WDir302030103040300300300270310260
WSpd7 9 7 7 5 6 5 4 6 5 7 8 11
WGst-- -- -- -- -- -- -- -- -- -- -- -- --
Raw hourly METARs
KLGA 010851Z 03007KT 7SM -SN OVC032 M02/M09 A3022 RMK AO2 SNB27 SLP233 P0000 60000 T10171089 53002 $
KLGA 010951Z 02009KT 2 1/2SM -SN FEW011 OVC036 M03/M08 A3023 RMK AO2 SLP237 P0001 T10331078 $
KLGA 011051Z 03007KT 7SM -SN SCT010 BKN028 OVC100 M03/M07 A3023 RMK AO2 SLP235 P0001 T10331067
KLGA 011151Z 01007KT 10SM BKN015 BKN065 OVC100 M03/M06 A3026 RMK AO2 SNE32 SLP246 931002 P0000 60002 70005 T10281061 11006 21033 53013
KLGA 011251Z 03005KT 10SM SCT015 BKN050 OVC100 M02/M07 A3027 RMK AO2 SLP248 T10221072
KLGA 011351Z 04006KT 10SM SCT015 BKN050 OVC100 M02/M08 A3027 RMK AO2 SLP250 T10221078
KLGA 011451Z 03005KT 10SM FEW015 BKN050 BKN110 M01/M08 A3029 RMK AO2 SLP255 T10111078 53009
KLGA 011551Z VRB04KT 10SM BKN049 BKN110 01/M07 A3028 RMK AO2 SLP254 T00061072
KLGA 011651Z 30006KT 10SM FEW033 SCT050 01/M08 A3027 RMK AO2 SLP250 T00061083
KLGA 011751Z 30005KT 10SM FEW043 SCT130 02/M09 A3024 RMK AO2 SLP240 T00171094 10017 21028 58015
KLGA 011851Z 27007KT 10SM FEW043 SCT250 03/M11 A3022 RMK AO2 SLP231 T00281111
KLGA 011951Z 31008KT 10SM FEW045 FEW250 03/M12 A3021 RMK AO2 SLP228 T00331122
KLGA 012051Z 26011KT 10SM FEW045 FEW250 03/M13 A3021 RMK AO2 SLP231 T00331133 55009



Page loaded:  21:20 UTC  |   01:20 PM Pacific  |   02:20 PM Mountain  |   03:20 PM Central  |   04:20 PM Eastern

 

ADVISORIES

FORECASTS

FORECASTS

OBSERVATIONS

USER TOOLS

ABOUT US